sensor_id;sensor_type;location;lat;lon;timestamp;P1;durP1;ratioP1;P2;durP2;ratioP2
75894;SDS011;64573;50.328;15.014;2023-01-24T00:01:12;49.85;;;20.80;;
75894;SDS011;64573;50.328;15.014;2023-01-24T00:03:37;40.53;;;16.45;;
75894;SDS011;64573;50.328;15.014;2023-01-24T00:06:02;40.42;;;16.17;;
75894;SDS011;64573;50.328;15.014;2023-01-24T00:08:27;50.15;;;21.35;;
75894;SDS011;64573;50.328;15.014;2023-01-24T00:10:59;40.53;;;17.05;;
75894;SDS011;64573;50.328;15.014;2023-01-24T00:13:25;30.75;;;13.05;;
75894;SDS011;64573;50.328;15.014;2023-01-24T00:15:50;46.75;;;16.85;;
75894;SDS011;64573;50.328;15.014;2023-01-24T00:18:15;48.40;;;18.73;;
75894;SDS011;64573;50.328;15.014;2023-01-24T00:20:41;59.60;;;21.27;;
75894;SDS011;64573;50.328;15.014;2023-01-24T00:23:06;56.50;;;19.60;;
75894;SDS011;64573;50.328;15.014;2023-01-24T00:25:32;53.90;;;18.30;;
75894;SDS011;64573;50.328;15.014;2023-01-24T00:27:57;44.33;;;18.02;;
75894;SDS011;64573;50.328;15.014;2023-01-24T00:30:22;36.58;;;15.65;;
75894;SDS011;64573;50.328;15.014;2023-01-24T00:32:47;50.83;;;20.38;;
75894;SDS011;64573;50.328;15.014;2023-01-24T00:35:13;55.30;;;20.88;;
75894;SDS011;64573;50.328;15.014;2023-01-24T00:37:38;35.67;;;13.93;;
75894;SDS011;64573;50.328;15.014;2023-01-24T00:40:04;30.08;;;13.27;;
75894;SDS011;64573;50.328;15.014;2023-01-24T00:42:29;35.08;;;14.10;;
75894;SDS011;64573;50.328;15.014;2023-01-24T00:44:54;45.03;;;19.48;;
75894;SDS011;64573;50.328;15.014;2023-01-24T00:47:19;32.45;;;13.65;;
75894;SDS011;64573;50.328;15.014;2023-01-24T00:49:45;60.78;;;21.25;;
75894;SDS011;64573;50.328;15.014;2023-01-24T00:52:10;44.80;;;18.55;;
75894;SDS011;64573;50.328;15.014;2023-01-24T00:54:35;30.45;;;13.23;;
75894;SDS011;64573;50.328;15.014;2023-01-24T00:57:00;40.38;;;17.85;;
75894;SDS011;64573;50.328;15.014;2023-01-24T00:59:25;46.70;;;18.95;;
75894;SDS011;64573;50.328;15.014;2023-01-24T01:01:51;54.63;;;21.30;;
75894;SDS011;64573;50.328;15.014;2023-01-24T01:04:16;37.17;;;16.77;;
75894;SDS011;64573;50.328;15.014;2023-01-24T01:06:42;44.65;;;17.88;;
75894;SDS011;64573;50.328;15.014;2023-01-24T01:09:08;40.47;;;16.73;;
75894;SDS011;64573;50.328;15.014;2023-01-24T01:11:33;44.25;;;19.50;;
75894;SDS011;64573;50.328;15.014;2023-01-24T01:13:58;37.70;;;16.23;;
75894;SDS011;64573;50.328;15.014;2023-01-24T01:16:23;46.03;;;17.55;;
75894;SDS011;64573;50.328;15.014;2023-01-24T01:18:50;35.28;;;14.75;;
75894;SDS011;64573;50.328;15.014;2023-01-24T01:21:18;42.50;;;16.52;;
75894;SDS011;64573;50.328;15.014;2023-01-24T01:23:44;44.03;;;17.33;;
75894;SDS011;64573;50.328;15.014;2023-01-24T01:28:39;39.47;;;16.02;;
75894;SDS011;64573;50.328;15.014;2023-01-24T01:31:04;33.38;;;14.77;;
75894;SDS011;64573;50.328;15.014;2023-01-24T01:33:29;35.53;;;15.73;;
75894;SDS011;64573;50.328;15.014;2023-01-24T01:35:54;38.92;;;16.00;;
75894;SDS011;64573;50.328;15.014;2023-01-24T01:38:20;38.25;;;15.65;;
75894;SDS011;64573;50.328;15.014;2023-01-24T01:40:45;45.50;;;17.58;;
75894;SDS011;64573;50.328;15.014;2023-01-24T01:43:12;45.55;;;17.75;;
75894;SDS011;64573;50.328;15.014;2023-01-24T01:45:39;53.72;;;22.15;;
75894;SDS011;64573;50.328;15.014;2023-01-24T01:48:21;46.30;;;18.60;;
75894;SDS011;64573;50.328;15.014;2023-01-24T01:50:53;198.10;;;19.48;;
75894;SDS011;64573;50.328;15.014;2023-01-24T01:53:20;40.28;;;17.42;;
75894;SDS011;64573;50.328;15.014;2023-01-24T01:55:48;53.42;;;19.27;;
75894;SDS011;64573;50.328;15.014;2023-01-24T01:58:14;42.22;;;17.70;;
75894;SDS011;64573;50.328;15.014;2023-01-24T02:00:40;55.35;;;18.75;;
75894;SDS011;64573;50.328;15.014;2023-01-24T02:03:10;54.67;;;19.23;;
75894;SDS011;64573;50.328;15.014;2023-01-24T02:05:55;48.22;;;17.38;;
75894;SDS011;64573;50.328;15.014;2023-01-24T02:08:22;44.25;;;17.10;;
75894;SDS011;64573;50.328;15.014;2023-01-24T02:10:48;50.33;;;18.05;;
75894;SDS011;64573;50.328;15.014;2023-01-24T02:13:32;47.80;;;18.02;;
75894;SDS011;64573;50.328;15.014;2023-01-24T02:16:00;53.17;;;19.52;;
75894;SDS011;64573;50.328;15.014;2023-01-24T02:18:31;52.00;;;19.23;;
75894;SDS011;64573;50.328;15.014;2023-01-24T02:20:57;46.50;;;18.42;;
75894;SDS011;64573;50.328;15.014;2023-01-24T02:25:51;54.63;;;19.67;;
75894;SDS011;64573;50.328;15.014;2023-01-24T02:28:18;66.78;;;18.50;;
75894;SDS011;64573;50.328;15.014;2023-01-24T02:30:43;66.97;;;22.30;;
75894;SDS011;64573;50.328;15.014;2023-01-24T02:33:13;67.15;;;20.23;;
75894;SDS011;64573;50.328;15.014;2023-01-24T02:35:39;58.85;;;17.80;;
75894;SDS011;64573;50.328;15.014;2023-01-24T02:38:05;70.55;;;25.15;;
75894;SDS011;64573;50.328;15.014;2023-01-24T02:40:31;69.53;;;24.15;;
75894;SDS011;64573;50.328;15.014;2023-01-24T02:42:59;84.43;;;30.48;;
75894;SDS011;64573;50.328;15.014;2023-01-24T02:45:25;65.57;;;22.70;;
75894;SDS011;64573;50.328;15.014;2023-01-24T02:47:52;59.42;;;20.25;;
75894;SDS011;64573;50.328;15.014;2023-01-24T02:50:18;87.72;;;29.20;;
75894;SDS011;64573;50.328;15.014;2023-01-24T02:52:43;71.63;;;24.35;;
75894;SDS011;64573;50.328;15.014;2023-01-24T02:55:27;83.10;;;23.20;;
75894;SDS011;64573;50.328;15.014;2023-01-24T02:57:52;72.13;;;19.33;;
75894;SDS011;64573;50.328;15.014;2023-01-24T03:00:33;74.45;;;19.02;;
75894;SDS011;64573;50.328;15.014;2023-01-24T03:02:59;78.10;;;21.80;;
75894;SDS011;64573;50.328;15.014;2023-01-24T03:05:24;111.18;;;27.27;;
75894;SDS011;64573;50.328;15.014;2023-01-24T03:07:49;86.25;;;20.63;;
75894;SDS011;64573;50.328;15.014;2023-01-24T03:10:15;118.65;;;28.58;;
75894;SDS011;64573;50.328;15.014;2023-01-24T03:12:41;96.55;;;23.05;;
75894;SDS011;64573;50.328;15.014;2023-01-24T03:15:25;122.47;;;26.00;;
75894;SDS011;64573;50.328;15.014;2023-01-24T03:18:09;109.88;;;26.35;;
75894;SDS011;64573;50.328;15.014;2023-01-24T03:20:53;96.75;;;22.98;;
75894;SDS011;64573;50.328;15.014;2023-01-24T03:23:37;106.93;;;24.40;;
75894;SDS011;64573;50.328;15.014;2023-01-24T03:26:21;163.82;;;37.00;;
75894;SDS011;64573;50.328;15.014;2023-01-24T03:29:05;101.25;;;22.08;;
75894;SDS011;64573;50.328;15.014;2023-01-24T03:31:46;111.18;;;24.85;;
75894;SDS011;64573;50.328;15.014;2023-01-24T03:34:30;122.47;;;29.20;;
75894;SDS011;64573;50.328;15.014;2023-01-24T03:37:10;114.22;;;24.10;;
75894;SDS011;64573;50.328;15.014;2023-01-24T03:42:01;125.82;;;27.13;;
75894;SDS011;64573;50.328;15.014;2023-01-24T03:44:26;122.97;;;26.15;;
75894;SDS011;64573;50.328;15.014;2023-01-24T03:46:51;113.55;;;26.35;;
75894;SDS011;64573;50.328;15.014;2023-01-24T03:49:16;121.60;;;27.58;;
75894;SDS011;64573;50.328;15.014;2023-01-24T03:51:42;94.80;;;21.65;;
75894;SDS011;64573;50.328;15.014;2023-01-24T03:54:26;122.63;;;28.58;;
75894;SDS011;64573;50.328;15.014;2023-01-24T03:56:51;95.55;;;20.23;;
75894;SDS011;64573;50.328;15.014;2023-01-24T03:59:16;133.55;;;27.70;;
75894;SDS011;64573;50.328;15.014;2023-01-24T04:01:41;134.32;;;25.77;;
75894;SDS011;64573;50.328;15.014;2023-01-24T04:04:07;142.95;;;28.02;;
75894;SDS011;64573;50.328;15.014;2023-01-24T04:06:32;160.57;;;30.70;;
75894;SDS011;64573;50.328;15.014;2023-01-24T04:08:57;119.22;;;22.88;;
75894;SDS011;64573;50.328;15.014;2023-01-24T04:11:22;135.05;;;29.00;;
75894;SDS011;64573;50.328;15.014;2023-01-24T04:13:47;159.68;;;32.08;;
75894;SDS011;64573;50.328;15.014;2023-01-24T04:16:13;142.30;;;28.95;;
75894;SDS011;64573;50.328;15.014;2023-01-24T04:18:39;129.90;;;26.83;;
75894;SDS011;64573;50.328;15.014;2023-01-24T04:21:05;135.73;;;28.58;;
75894;SDS011;64573;50.328;15.014;2023-01-24T04:23:30;109.18;;;23.08;;
75894;SDS011;64573;50.328;15.014;2023-01-24T04:25:55;150.48;;;29.52;;
75894;SDS011;64573;50.328;15.014;2023-01-24T04:28:23;129.00;;;25.77;;
75894;SDS011;64573;50.328;15.014;2023-01-24T04:30:48;164.40;;;34.03;;
75894;SDS011;64573;50.328;15.014;2023-01-24T04:33:14;133.30;;;28.48;;
75894;SDS011;64573;50.328;15.014;2023-01-24T04:35:39;147.23;;;31.33;;
75894;SDS011;64573;50.328;15.014;2023-01-24T04:38:04;127.95;;;27.45;;
75894;SDS011;64573;50.328;15.014;2023-01-24T04:40:30;121.55;;;23.65;;
75894;SDS011;64573;50.328;15.014;2023-01-24T04:42:56;124.72;;;25.42;;
75894;SDS011;64573;50.328;15.014;2023-01-24T04:45:21;112.55;;;25.17;;
75894;SDS011;64573;50.328;15.014;2023-01-24T04:47:47;119.78;;;24.63;;
75894;SDS011;64573;50.328;15.014;2023-01-24T04:50:12;120.30;;;25.48;;
75894;SDS011;64573;50.328;15.014;2023-01-24T04:52:37;99.82;;;23.08;;
75894;SDS011;64573;50.328;15.014;2023-01-24T04:55:02;125.50;;;25.55;;
75894;SDS011;64573;50.328;15.014;2023-01-24T04:57:28;108.10;;;25.33;;
75894;SDS011;64573;50.328;15.014;2023-01-24T04:59:53;133.77;;;29.25;;
75894;SDS011;64573;50.328;15.014;2023-01-24T05:02:18;122.15;;;28.52;;
75894;SDS011;64573;50.328;15.014;2023-01-24T05:04:43;113.47;;;24.33;;
75894;SDS011;64573;50.328;15.014;2023-01-24T05:07:09;127.90;;;29.85;;
75894;SDS011;64573;50.328;15.014;2023-01-24T05:09:34;94.07;;;23.08;;
75894;SDS011;64573;50.328;15.014;2023-01-24T05:11:59;103.35;;;23.80;;
75894;SDS011;64573;50.328;15.014;2023-01-24T05:14:24;110.53;;;26.70;;
75894;SDS011;64573;50.328;15.014;2023-01-24T05:16:50;106.18;;;28.63;;
75894;SDS011;64573;50.328;15.014;2023-01-24T05:19:15;120.70;;;28.00;;
75894;SDS011;64573;50.328;15.014;2023-01-24T05:21:40;116.05;;;30.95;;
75894;SDS011;64573;50.328;15.014;2023-01-24T05:24:06;101.63;;;25.77;;
75894;SDS011;64573;50.328;15.014;2023-01-24T05:26:31;118.07;;;35.75;;
75894;SDS011;64573;50.328;15.014;2023-01-24T05:28:56;96.45;;;25.45;;
75894;SDS011;64573;50.328;15.014;2023-01-24T05:31:21;86.97;;;26.83;;
75894;SDS011;64573;50.328;15.014;2023-01-24T05:33:47;98.32;;;30.73;;
75894;SDS011;64573;50.328;15.014;2023-01-24T05:36:14;81.32;;;25.08;;
75894;SDS011;64573;50.328;15.014;2023-01-24T05:38:39;88.10;;;25.83;;
75894;SDS011;64573;50.328;15.014;2023-01-24T05:41:06;82.28;;;25.30;;
75894;SDS011;64573;50.328;15.014;2023-01-24T05:43:32;85.55;;;27.58;;
75894;SDS011;64573;50.328;15.014;2023-01-24T05:46:01;98.60;;;28.52;;
75894;SDS011;64573;50.328;15.014;2023-01-24T05:48:27;71.80;;;23.85;;
75894;SDS011;64573;50.328;15.014;2023-01-24T05:50:56;87.78;;;27.10;;
75894;SDS011;64573;50.328;15.014;2023-01-24T05:53:22;95.43;;;28.77;;
75894;SDS011;64573;50.328;15.014;2023-01-24T05:55:53;80.85;;;22.80;;
75894;SDS011;64573;50.328;15.014;2023-01-24T05:58:18;85.30;;;26.08;;
75894;SDS011;64573;50.328;15.014;2023-01-24T06:00:44;121.25;;;34.05;;
75894;SDS011;64573;50.328;15.014;2023-01-24T06:03:09;86.88;;;24.95;;
75894;SDS011;64573;50.328;15.014;2023-01-24T06:05:34;84.43;;;25.65;;
75894;SDS011;64573;50.328;15.014;2023-01-24T06:07:59;84.57;;;27.15;;
75894;SDS011;64573;50.328;15.014;2023-01-24T06:10:24;100.60;;;31.02;;
75894;SDS011;64573;50.328;15.014;2023-01-24T06:12:50;73.50;;;20.30;;
75894;SDS011;64573;50.328;15.014;2023-01-24T06:15:15;76.50;;;22.77;;
75894;SDS011;64573;50.328;15.014;2023-01-24T06:17:40;65.47;;;16.90;;
75894;SDS011;64573;50.328;15.014;2023-01-24T06:20:05;94.65;;;27.33;;
75894;SDS011;64573;50.328;15.014;2023-01-24T06:22:38;87.78;;;25.92;;
75894;SDS011;64573;50.328;15.014;2023-01-24T06:25:09;109.05;;;32.33;;
75894;SDS011;64573;50.328;15.014;2023-01-24T06:27:32;80.88;;;21.27;;
75894;SDS011;64573;50.328;15.014;2023-01-24T06:29:58;89.57;;;20.10;;
75894;SDS011;64573;50.328;15.014;2023-01-24T06:32:29;96.32;;;28.52;;
75894;SDS011;64573;50.328;15.014;2023-01-24T06:35:06;68.93;;;20.88;;
75894;SDS011;64573;50.328;15.014;2023-01-24T06:37:46;99.85;;;33.85;;
75894;SDS011;64573;50.328;15.014;2023-01-24T06:40:12;84.47;;;27.40;;
75894;SDS011;64573;50.328;15.014;2023-01-24T06:42:38;85.25;;;25.38;;
75894;SDS011;64573;50.328;15.014;2023-01-24T06:45:04;71.45;;;23.50;;
75894;SDS011;64573;50.328;15.014;2023-01-24T06:47:29;82.63;;;30.65;;
75894;SDS011;64573;50.328;15.014;2023-01-24T06:49:54;53.22;;;16.33;;
75894;SDS011;64573;50.328;15.014;2023-01-24T06:52:20;72.50;;;27.45;;
75894;SDS011;64573;50.328;15.014;2023-01-24T06:57:14;64.80;;;23.98;;
75894;SDS011;64573;50.328;15.014;2023-01-24T06:59:40;58.90;;;18.48;;
75894;SDS011;64573;50.328;15.014;2023-01-24T07:02:05;61.85;;;20.00;;
75894;SDS011;64573;50.328;15.014;2023-01-24T07:04:30;77.90;;;27.23;;
75894;SDS011;64573;50.328;15.014;2023-01-24T07:06:55;72.15;;;23.27;;
75894;SDS011;64573;50.328;15.014;2023-01-24T07:09:21;55.00;;;18.10;;
75894;SDS011;64573;50.328;15.014;2023-01-24T07:11:47;62.70;;;17.15;;
75894;SDS011;64573;50.328;15.014;2023-01-24T07:14:14;76.28;;;25.17;;
75894;SDS011;64573;50.328;15.014;2023-01-24T07:16:39;57.70;;;17.83;;
75894;SDS011;64573;50.328;15.014;2023-01-24T07:19:05;83.03;;;27.15;;
75894;SDS011;64573;50.328;15.014;2023-01-24T07:21:30;82.05;;;26.52;;
75894;SDS011;64573;50.328;15.014;2023-01-24T07:23:56;57.97;;;18.48;;
75894;SDS011;64573;50.328;15.014;2023-01-24T07:26:22;69.30;;;21.17;;
75894;SDS011;64573;50.328;15.014;2023-01-24T07:28:48;62.22;;;19.52;;
75894;SDS011;64573;50.328;15.014;2023-01-24T07:31:13;74.70;;;27.02;;
75894;SDS011;64573;50.328;15.014;2023-01-24T07:33:39;65.13;;;20.70;;
75894;SDS011;64573;50.328;15.014;2023-01-24T07:36:14;65.63;;;20.23;;
75894;SDS011;64573;50.328;15.014;2023-01-24T07:38:39;71.32;;;20.63;;
75894;SDS011;64573;50.328;15.014;2023-01-24T07:41:08;65.97;;;21.75;;
75894;SDS011;64573;50.328;15.014;2023-01-24T07:43:33;47.85;;;16.80;;
75894;SDS011;64573;50.328;15.014;2023-01-24T07:45:59;61.58;;;19.30;;
75894;SDS011;64573;50.328;15.014;2023-01-24T07:48:24;59.28;;;20.00;;
75894;SDS011;64573;50.328;15.014;2023-01-24T07:50:49;49.95;;;14.38;;
75894;SDS011;64573;50.328;15.014;2023-01-24T07:53:14;54.60;;;17.17;;
75894;SDS011;64573;50.328;15.014;2023-01-24T07:55:40;61.00;;;18.42;;
75894;SDS011;64573;50.328;15.014;2023-01-24T07:58:05;47.92;;;15.25;;
75894;SDS011;64573;50.328;15.014;2023-01-24T08:00:30;52.53;;;16.60;;
75894;SDS011;64573;50.328;15.014;2023-01-24T08:02:55;60.97;;;19.40;;
75894;SDS011;64573;50.328;15.014;2023-01-24T08:20:53;62.45;;;21.38;;
75894;SDS011;64573;50.328;15.014;2023-01-24T08:43:30;57.17;;;18.83;;
75894;SDS011;64573;50.328;15.014;2023-01-24T08:56:09;52.53;;;16.98;;
75894;SDS011;64573;50.328;15.014;2023-01-24T08:58:34;48.15;;;16.52;;
75894;SDS011;64573;50.328;15.014;2023-01-24T09:03:30;49.92;;;17.42;;
75894;SDS011;64573;50.328;15.014;2023-01-24T09:08:25;46.28;;;15.93;;
75894;SDS011;64573;50.328;15.014;2023-01-24T09:18:24;36.67;;;14.00;;
75894;SDS011;64573;50.328;15.014;2023-01-24T09:23:17;38.92;;;15.98;;
75894;SDS011;64573;50.328;15.014;2023-01-24T09:25:49;41.50;;;15.73;;
75894;SDS011;64573;50.328;15.014;2023-01-24T09:28:14;38.45;;;14.60;;
75894;SDS011;64573;50.328;15.014;2023-01-24T09:30:39;42.55;;;16.05;;
75894;SDS011;64573;50.328;15.014;2023-01-24T09:33:04;36.22;;;14.93;;
75894;SDS011;64573;50.328;15.014;2023-01-24T09:35:30;37.90;;;15.20;;
75894;SDS011;64573;50.328;15.014;2023-01-24T09:37:55;38.75;;;16.88;;
75894;SDS011;64573;50.328;15.014;2023-01-24T09:40:22;40.60;;;15.50;;
75894;SDS011;64573;50.328;15.014;2023-01-24T09:45:18;39.60;;;15.43;;
75894;SDS011;64573;50.328;15.014;2023-01-24T09:47:48;38.70;;;16.38;;
75894;SDS011;64573;50.328;15.014;2023-01-24T09:50:16;46.40;;;17.83;;
75894;SDS011;64573;50.328;15.014;2023-01-24T09:52:43;38.55;;;15.57;;
75894;SDS011;64573;50.328;15.014;2023-01-24T09:57:50;36.00;;;15.57;;
75894;SDS011;64573;50.328;15.014;2023-01-24T10:02:41;38.38;;;15.32;;
75894;SDS011;64573;50.328;15.014;2023-01-24T10:05:12;43.67;;;18.25;;
75894;SDS011;64573;50.328;15.014;2023-01-24T10:07:56;41.35;;;16.58;;
75894;SDS011;64573;50.328;15.014;2023-01-24T10:13:09;45.72;;;21.10;;
75894;SDS011;64573;50.328;15.014;2023-01-24T10:20:49;54.70;;;22.65;;
75894;SDS011;64573;50.328;15.014;2023-01-24T10:23:27;51.88;;;21.55;;
75894;SDS011;64573;50.328;15.014;2023-01-24T10:25:58;63.92;;;24.50;;
75894;SDS011;64573;50.328;15.014;2023-01-24T10:31:13;43.40;;;18.48;;
75894;SDS011;64573;50.328;15.014;2023-01-24T10:33:39;55.60;;;19.95;;
75894;SDS011;64573;50.328;15.014;2023-01-24T10:38:51;51.60;;;19.98;;
75894;SDS011;64573;50.328;15.014;2023-01-24T11:01:47;51.70;;;19.23;;
75894;SDS011;64573;50.328;15.014;2023-01-24T13:32:38;47.00;;;21.10;;
75894;SDS011;64573;50.328;15.014;2023-01-24T13:50:24;45.28;;;18.35;;
75894;SDS011;64573;50.328;15.014;2023-01-24T13:52:53;52.63;;;23.33;;
75894;SDS011;64573;50.328;15.014;2023-01-24T14:00:22;49.15;;;20.25;;
75894;SDS011;64573;50.328;15.014;2023-01-24T14:10:12;42.17;;;18.42;;
75894;SDS011;64573;50.328;15.014;2023-01-24T14:12:38;43.65;;;18.08;;
75894;SDS011;64573;50.328;15.014;2023-01-24T14:15:05;55.80;;;24.85;;
75894;SDS011;64573;50.328;15.014;2023-01-24T14:22:39;38.90;;;16.63;;
75894;SDS011;64573;50.328;15.014;2023-01-24T14:58:34;67.15;;;33.35;;
75894;SDS011;64573;50.328;15.014;2023-01-24T15:08:43;52.17;;;20.75;;
75894;SDS011;64573;50.328;15.014;2023-01-24T15:19:00;45.72;;;19.70;;
75894;SDS011;64573;50.328;15.014;2023-01-24T15:23:57;48.25;;;19.75;;
75894;SDS011;64573;50.328;15.014;2023-01-24T15:28:47;49.58;;;20.70;;
75894;SDS011;64573;50.328;15.014;2023-01-24T15:46:43;42.47;;;15.90;;
75894;SDS011;64573;50.328;15.014;2023-01-24T15:49:18;51.10;;;19.92;;
75894;SDS011;64573;50.328;15.014;2023-01-24T15:59:19;59.33;;;25.67;;
75894;SDS011;64573;50.328;15.014;2023-01-24T16:42:54;64.32;;;28.00;;
75894;SDS011;64573;50.328;15.014;2023-01-24T16:45:20;60.58;;;23.90;;
75894;SDS011;64573;50.328;15.014;2023-01-24T16:47:46;63.45;;;25.40;;
75894;SDS011;64573;50.328;15.014;2023-01-24T16:52:47;54.95;;;21.85;;
75894;SDS011;64573;50.328;15.014;2023-01-24T17:02:57;60.30;;;23.33;;
75894;SDS011;64573;50.328;15.014;2023-01-24T17:10:34;64.32;;;23.63;;
75894;SDS011;64573;50.328;15.014;2023-01-24T17:30:54;69.80;;;25.50;;
75894;SDS011;64573;50.328;15.014;2023-01-24T17:51:25;75.75;;;27.25;;
75894;SDS011;64573;50.328;15.014;2023-01-24T17:53:50;65.13;;;25.27;;
75894;SDS011;64573;50.328;15.014;2023-01-24T17:56:16;66.50;;;25.23;;
75894;SDS011;64573;50.328;15.014;2023-01-24T18:01:16;68.25;;;25.10;;
75894;SDS011;64573;50.328;15.014;2023-01-24T18:39:52;78.22;;;31.50;;
75894;SDS011;64573;50.328;15.014;2023-01-24T18:44:53;69.47;;;27.88;;
75894;SDS011;64573;50.328;15.014;2023-01-24T19:13:08;69.90;;;27.30;;
75894;SDS011;64573;50.328;15.014;2023-01-24T19:20:44;50.47;;;18.38;;
75894;SDS011;64573;50.328;15.014;2023-01-24T19:28:19;66.97;;;25.05;;
75894;SDS011;64573;50.328;15.014;2023-01-24T19:30:49;65.65;;;22.83;;
75894;SDS011;64573;50.328;15.014;2023-01-24T19:33:17;76.32;;;29.17;;
75894;SDS011;64573;50.328;15.014;2023-01-24T19:35:42;74.20;;;27.17;;
75894;SDS011;64573;50.328;15.014;2023-01-24T20:01:17;87.07;;;30.45;;
75894;SDS011;64573;50.328;15.014;2023-01-24T20:06:19;82.85;;;28.00;;
75894;SDS011;64573;50.328;15.014;2023-01-24T20:16:30;79.07;;;28.13;;
75894;SDS011;64573;50.328;15.014;2023-01-24T20:24:05;74.53;;;27.42;;
75894;SDS011;64573;50.328;15.014;2023-01-24T20:41:51;78.20;;;26.75;;
75894;SDS011;64573;50.328;15.014;2023-01-24T20:51:59;83.45;;;28.08;;
75894;SDS011;64573;50.328;15.014;2023-01-24T20:54:24;82.68;;;28.30;;
75894;SDS011;64573;50.328;15.014;2023-01-24T20:59:15;72.47;;;26.65;;
75894;SDS011;64573;50.328;15.014;2023-01-24T21:01:41;68.13;;;25.08;;
75894;SDS011;64573;50.328;15.014;2023-01-24T21:04:06;67.55;;;24.10;;
75894;SDS011;64573;50.328;15.014;2023-01-24T21:21:47;62.25;;;22.25;;
75894;SDS011;64573;50.328;15.014;2023-01-24T21:31:57;59.10;;;22.42;;
75894;SDS011;64573;50.328;15.014;2023-01-24T21:44:42;65.13;;;24.38;;
75894;SDS011;64573;50.328;15.014;2023-01-24T21:54:45;59.22;;;22.10;;
75894;SDS011;64573;50.328;15.014;2023-01-24T22:12:28;77.55;;;26.85;;
75894;SDS011;64573;50.328;15.014;2023-01-24T22:14:54;67.20;;;25.15;;
75894;SDS011;64573;50.328;15.014;2023-01-24T22:19:50;64.35;;;24.02;;
75894;SDS011;64573;50.328;15.014;2023-01-24T22:45:26;69.95;;;25.15;;
75894;SDS011;64573;50.328;15.014;2023-01-24T22:53:02;67.22;;;23.35;;
75894;SDS011;64573;50.328;15.014;2023-01-24T23:03:12;72.70;;;24.42;;
75894;SDS011;64573;50.328;15.014;2023-01-24T23:13:23;72.40;;;24.08;;
75894;SDS011;64573;50.328;15.014;2023-01-24T23:15:59;72.90;;;25.08;;
75894;SDS011;64573;50.328;15.014;2023-01-24T23:21:09;70.82;;;24.55;;
75894;SDS011;64573;50.328;15.014;2023-01-24T23:31:15;70.30;;;25.08;;
75894;SDS011;64573;50.328;15.014;2023-01-24T23:33:40;72.28;;;26.13;;
75894;SDS011;64573;50.328;15.014;2023-01-24T23:36:08;77.43;;;23.90;;
75894;SDS011;64573;50.328;15.014;2023-01-24T23:48:53;73.38;;;25.42;;
75894;SDS011;64573;50.328;15.014;2023-01-24T23:51:18;69.00;;;24.77;;
